sensor_id;sensor_type;location;lat;lon;timestamp;pressure;altitude;pressure_sealevel;temperature;humidity
25430;BME280;13360;48.152;-1.788;2022-10-16T00:01:34;102770.72;;;16.26;100.00
25430;BME280;13360;48.152;-1.788;2022-10-16T00:04:01;102774.88;;;16.29;100.00
25430;BME280;13360;48.152;-1.788;2022-10-16T00:06:28;102781.28;;;16.29;100.00
25430;BME280;13360;48.152;-1.788;2022-10-16T00:08:54;102778.78;;;16.28;100.00
25430;BME280;13360;48.152;-1.788;2022-10-16T00:11:22;102783.53;;;16.27;100.00
25430;BME280;13360;48.152;-1.788;2022-10-16T00:13:50;102795.25;;;16.24;100.00
25430;BME280;13360;48.152;-1.788;2022-10-16T00:16:17;102796.94;;;16.25;100.00
25430;BME280;13360;48.152;-1.788;2022-10-16T00:18:43;102809.22;;;16.24;100.00
25430;BME280;13360;48.152;-1.788;2022-10-16T00:21:14;102799.72;;;16.20;100.00
25430;BME280;13360;48.152;-1.788;2022-10-16T00:23:40;102821.44;;;16.23;100.00
25430;BME280;13360;48.152;-1.788;2022-10-16T00:26:13;102818.66;;;16.23;100.00
25430;BME280;13360;48.152;-1.788;2022-10-16T00:28:39;102819.25;;;16.25;100.00
25430;BME280;13360;48.152;-1.788;2022-10-16T00:31:10;102834.31;;;16.24;100.00
25430;BME280;13360;48.152;-1.788;2022-10-16T00:33:38;102841.81;;;16.24;100.00
25430;BME280;13360;48.152;-1.788;2022-10-16T00:36:04;102849.34;;;16.23;100.00
25430;BME280;13360;48.152;-1.788;2022-10-16T00:38:31;102853.72;;;16.50;100.00
25430;BME280;13360;48.152;-1.788;2022-10-16T00:40:56;102814.31;;;16.61;100.00
25430;BME280;13360;48.152;-1.788;2022-10-16T00:46:01;102740.91;;;16.66;100.00
25430;BME280;13360;48.152;-1.788;2022-10-16T00:48:26;102722.47;;;16.65;100.00
25430;BME280;13360;48.152;-1.788;2022-10-16T00:50:52;102692.63;;;16.65;100.00
25430;BME280;13360;48.152;-1.788;2022-10-16T00:53:18;102624.22;;;16.39;100.00
25430;BME280;13360;48.152;-1.788;2022-10-16T00:55:44;102685.13;;;16.66;100.00
25430;BME280;13360;48.152;-1.788;2022-10-16T00:58:11;102659.16;;;16.70;100.00
25430;BME280;13360;48.152;-1.788;2022-10-16T01:00:36;102635.41;;;16.73;100.00
25430;BME280;13360;48.152;-1.788;2022-10-16T01:03:02;102629.84;;;16.73;100.00
25430;BME280;13360;48.152;-1.788;2022-10-16T01:05:37;102623.19;;;16.69;100.00
25430;BME280;13360;48.152;-1.788;2022-10-16T01:08:18;102613.44;;;16.66;100.00
25430;BME280;13360;48.152;-1.788;2022-10-16T01:11:06;102622.34;;;16.68;100.00
25430;BME280;13360;48.152;-1.788;2022-10-16T01:13:41;102626.81;;;16.69;100.00
25430;BME280;13360;48.152;-1.788;2022-10-16T01:16:16;102622.34;;;16.68;100.00
25430;BME280;13360;48.152;-1.788;2022-10-16T01:18:45;102626.81;;;16.69;100.00
25430;BME280;13360;48.152;-1.788;2022-10-16T01:21:33;102626.81;;;16.69;100.00
25430;BME280;13360;48.152;-1.788;2022-10-16T01:24:12;102622.34;;;16.68;100.00
25430;BME280;13360;48.152;-1.788;2022-10-16T01:29:49;102588.03;;;16.63;100.00
25430;BME280;13360;48.152;-1.788;2022-10-16T01:32:24;102579.13;;;16.61;100.00
25430;BME280;13360;48.152;-1.788;2022-10-16T01:37:36;102571.56;;;16.61;100.00
25430;BME280;13360;48.152;-1.788;2022-10-16T01:40:07;102559.59;;;16.61;100.00
25430;BME280;13360;48.152;-1.788;2022-10-16T01:42:37;102551.22;;;16.61;100.00
25430;BME280;13360;48.152;-1.788;2022-10-16T01:45:06;102540.66;;;16.58;100.00
25430;BME280;13360;48.152;-1.788;2022-10-16T01:47:34;102538.75;;;16.53;100.00
25430;BME280;13360;48.152;-1.788;2022-10-16T01:50:02;102549.63;;;16.55;100.00
25430;BME280;13360;48.152;-1.788;2022-10-16T01:52:32;102552.09;;;16.56;100.00
25430;BME280;13360;48.152;-1.788;2022-10-16T01:55:00;102549.63;;;16.55;100.00
25430;BME280;13360;48.152;-1.788;2022-10-16T01:57:27;102549.63;;;16.55;100.00
25430;BME280;13360;48.152;-1.788;2022-10-16T01:59:57;102562.44;;;16.56;100.00
25430;BME280;13360;48.152;-1.788;2022-10-16T02:02:26;102542.91;;;16.56;100.00
25430;BME280;13360;48.152;-1.788;2022-10-16T02:04:58;102535.97;;;16.53;100.00
25430;BME280;13360;48.152;-1.788;2022-10-16T02:07:24;102532.34;;;16.53;100.00
25430;BME280;13360;48.152;-1.788;2022-10-16T02:09:50;102518.69;;;16.51;100.00
25430;BME280;13360;48.152;-1.788;2022-10-16T02:12:24;102504.50;;;16.48;100.00
25430;BME280;13360;48.152;-1.788;2022-10-16T02:14:51;102504.50;;;16.48;100.00
25430;BME280;13360;48.152;-1.788;2022-10-16T02:17:17;102502.84;;;16.46;100.00
25430;BME280;13360;48.152;-1.788;2022-10-16T02:19:43;102494.47;;;16.46;100.00
25430;BME280;13360;48.152;-1.788;2022-10-16T02:22:16;102487.47;;;16.49;100.00
25430;BME280;13360;48.152;-1.788;2022-10-16T02:24:54;102491.94;;;16.50;100.00
25430;BME280;13360;48.152;-1.788;2022-10-16T02:27:44;102491.94;;;16.50;100.00
25430;BME280;13360;48.152;-1.788;2022-10-16T02:30:25;102488.91;;;16.46;100.00
25430;BME280;13360;48.152;-1.788;2022-10-16T02:32:53;102471.59;;;16.44;100.00
25430;BME280;13360;48.152;-1.788;2022-10-16T02:35:21;102470.22;;;16.42;100.00
25430;BME280;13360;48.152;-1.788;2022-10-16T02:37:47;102463.00;;;16.41;100.00
25430;BME280;13360;48.152;-1.788;2022-10-16T02:40:15;102453.91;;;16.30;100.00
25430;BME280;13360;48.152;-1.788;2022-10-16T02:42:41;102448.28;;;16.35;100.00
25430;BME280;13360;48.152;-1.788;2022-10-16T02:45:08;102437.94;;;16.36;100.00
25430;BME280;13360;48.152;-1.788;2022-10-16T02:47:33;102433.22;;;16.36;100.00
25430;BME280;13360;48.152;-1.788;2022-10-16T02:49:59;102431.25;;;16.37;100.00
25430;BME280;13360;48.152;-1.788;2022-10-16T02:52:24;102422.88;;;16.37;100.00
25430;BME280;13360;48.152;-1.788;2022-10-16T02:54:50;102401.16;;;16.34;100.00
25430;BME280;13360;48.152;-1.788;2022-10-16T02:57:15;102404.78;;;16.34;100.00
25430;BME280;13360;48.152;-1.788;2022-10-16T02:59:41;102393.63;;;16.34;100.00
25430;BME280;13360;48.152;-1.788;2022-10-16T03:02:06;102386.41;;;16.33;100.00
25430;BME280;13360;48.152;-1.788;2022-10-16T03:04:32;102370.78;;;16.32;100.00
25430;BME280;13360;48.152;-1.788;2022-10-16T03:06:57;102358.59;;;16.28;100.00
25430;BME280;13360;48.152;-1.788;2022-10-16T03:09:22;102347.72;;;16.27;100.00
25430;BME280;13360;48.152;-1.788;2022-10-16T03:11:48;102336.28;;;16.28;100.00
25430;BME280;13360;48.152;-1.788;2022-10-16T03:14:13;102322.34;;;16.28;100.00
25430;BME280;13360;48.152;-1.788;2022-10-16T03:16:39;102327.91;;;16.28;100.00
25430;BME280;13360;48.152;-1.788;2022-10-16T03:19:04;102346.53;;;16.33;100.00
25430;BME280;13360;48.152;-1.788;2022-10-16T03:21:29;102357.69;;;16.33;100.00
25430;BME280;13360;48.152;-1.788;2022-10-16T03:23:55;102386.63;;;16.37;100.00
25430;BME280;13360;48.152;-1.788;2022-10-16T03:26:20;102406.91;;;16.42;100.00
25430;BME280;13360;48.152;-1.788;2022-10-16T03:28:45;102416.94;;;16.43;100.00
25430;BME280;13360;48.152;-1.788;2022-10-16T03:31:11;102430.31;;;16.46;100.00
25430;BME280;13360;48.152;-1.788;2022-10-16T03:33:36;102444.28;;;16.46;100.00
25430;BME280;13360;48.152;-1.788;2022-10-16T03:36:01;102447.88;;;16.47;100.00
25430;BME280;13360;48.152;-1.788;2022-10-16T03:38:27;102466.00;;;16.50;100.00
25430;BME280;13360;48.152;-1.788;2022-10-16T03:40:52;102476.03;;;16.51;100.00
25430;BME280;13360;48.152;-1.788;2022-10-16T03:43:17;102483.25;;;16.52;100.00
25430;BME280;13360;48.152;-1.788;2022-10-16T03:45:43;102502.25;;;16.50;100.00
25430;BME280;13360;48.152;-1.788;2022-10-16T03:48:08;102533.47;;;16.52;100.00
25430;BME280;13360;48.152;-1.788;2022-10-16T03:50:34;102561.66;;;16.50;100.00
25430;BME280;13360;48.152;-1.788;2022-10-16T03:52:59;102583.69;;;16.52;100.00
25430;BME280;13360;48.152;-1.788;2022-10-16T03:55:24;102595.66;;;16.52;100.00
25430;BME280;13360;48.152;-1.788;2022-10-16T03:57:50;102607.06;;;16.56;100.00
25430;BME280;13360;48.152;-1.788;2022-10-16T04:00:15;102620.72;;;16.57;100.00
25430;BME280;13360;48.152;-1.788;2022-10-16T04:02:40;102634.97;;;16.56;100.00
25430;BME280;13360;48.152;-1.788;2022-10-16T04:05:06;102643.03;;;16.57;100.00
25430;BME280;13360;48.152;-1.788;2022-10-16T04:07:32;102651.13;;;16.59;100.00
25430;BME280;13360;48.152;-1.788;2022-10-16T04:09:57;102674.84;;;16.56;100.00
25430;BME280;13360;48.152;-1.788;2022-10-16T04:12:24;102690.50;;;16.52;100.00
25430;BME280;13360;48.152;-1.788;2022-10-16T04:14:50;102713.66;;;16.53;100.00
25430;BME280;13360;48.152;-1.788;2022-10-16T04:17:15;102728.72;;;16.52;100.00
25430;BME280;13360;48.152;-1.788;2022-10-16T04:19:41;102739.34;;;16.44;100.00
25430;BME280;13360;48.152;-1.788;2022-10-16T04:22:06;102769.78;;;16.46;100.00
25430;BME280;13360;48.152;-1.788;2022-10-16T04:24:31;102799.00;;;16.54;100.00
25430;BME280;13360;48.152;-1.788;2022-10-16T04:26:57;102822.41;;;16.58;100.00
25430;BME280;13360;48.152;-1.788;2022-10-16T04:29:22;102841.38;;;16.61;100.00
25430;BME280;13360;48.152;-1.788;2022-10-16T04:31:47;102848.91;;;16.60;100.00
25430;BME280;13360;48.152;-1.788;2022-10-16T04:34:13;102852.53;;;16.61;100.00
25430;BME280;13360;48.152;-1.788;2022-10-16T04:36:38;102873.72;;;16.62;100.00
25430;BME280;13360;48.152;-1.788;2022-10-16T04:39:03;102869.81;;;16.63;100.00
25430;BME280;13360;48.152;-1.788;2022-10-16T04:41:29;102889.63;;;16.61;100.00
25430;BME280;13360;48.152;-1.788;2022-10-16T04:43:54;102890.75;;;16.60;100.00
25430;BME280;13360;48.152;-1.788;2022-10-16T04:46:19;102912.78;;;16.62;100.00
25430;BME280;13360;48.152;-1.788;2022-10-16T04:48:45;102931.19;;;16.63;100.00
25430;BME280;13360;48.152;-1.788;2022-10-16T04:51:12;102914.03;;;16.20;100.00
25430;BME280;13360;48.152;-1.788;2022-10-16T04:53:37;102945.28;;;16.12;100.00
25430;BME280;13360;48.152;-1.788;2022-10-16T04:56:03;102971.22;;;16.07;100.00
25430;BME280;13360;48.152;-1.788;2022-10-16T04:58:28;103013.03;;;16.07;100.00
25430;BME280;13360;48.152;-1.788;2022-10-16T05:00:54;103037.00;;;16.08;100.00
25430;BME280;13360;48.152;-1.788;2022-10-16T05:03:19;103071.03;;;16.10;100.00
25430;BME280;13360;48.152;-1.788;2022-10-16T05:05:45;103083.28;;;16.09;100.00
25430;BME280;13360;48.152;-1.788;2022-10-16T05:08:12;103102.81;;;16.09;100.00
25430;BME280;13360;48.152;-1.788;2022-10-16T05:10:38;103115.06;;;16.08;100.00
25430;BME280;13360;48.152;-1.788;2022-10-16T05:13:04;103131.81;;;16.08;100.00
25430;BME280;13360;48.152;-1.788;2022-10-16T05:15:29;103152.16;;;16.09;100.00
25430;BME280;13360;48.152;-1.788;2022-10-16T05:17:55;103170.84;;;16.08;100.00
25430;BME280;13360;48.152;-1.788;2022-10-16T05:20:21;103180.31;;;16.07;100.00
25430;BME280;13360;48.152;-1.788;2022-10-16T05:22:47;103208.19;;;16.07;100.00
25430;BME280;13360;48.152;-1.788;2022-10-16T05:25:13;103224.91;;;16.07;100.00
25430;BME280;13360;48.152;-1.788;2022-10-16T05:27:38;103236.63;;;16.09;100.00
25430;BME280;13360;48.152;-1.788;2022-10-16T05:30:04;103255.88;;;16.11;100.00
25430;BME280;13360;48.152;-1.788;2022-10-16T05:32:29;103272.31;;;16.12;100.00
25430;BME280;13360;48.152;-1.788;2022-10-16T05:34:55;103289.91;;;16.13;100.00
25430;BME280;13360;48.152;-1.788;2022-10-16T05:37:20;103301.06;;;16.13;100.00
25430;BME280;13360;48.152;-1.788;2022-10-16T05:39:45;103305.50;;;16.14;100.00
25430;BME280;13360;48.152;-1.788;2022-10-16T05:42:11;103313.88;;;16.14;100.00
25430;BME280;13360;48.152;-1.788;2022-10-16T05:44:36;103328.94;;;16.13;100.00
25430;BME280;13360;48.152;-1.788;2022-10-16T05:47:01;103335.34;;;16.13;100.00
25430;BME280;13360;48.152;-1.788;2022-10-16T05:49:27;103350.97;;;16.14;100.00
25430;BME280;13360;48.152;-1.788;2022-10-16T05:51:52;103351.81;;;16.15;100.00
25430;BME280;13360;48.152;-1.788;2022-10-16T05:54:18;103366.59;;;16.15;100.00
25430;BME280;13360;48.152;-1.788;2022-10-16T05:56:43;103372.97;;;16.11;100.00
25430;BME280;13360;48.152;-1.788;2022-10-16T05:59:08;103374.06;;;16.05;100.00
25430;BME280;13360;48.152;-1.788;2022-10-16T06:01:34;103406.97;;;16.08;100.00
25430;BME280;13360;48.152;-1.788;2022-10-16T06:04:00;103420.09;;;16.12;100.00
25430;BME280;13360;48.152;-1.788;2022-10-16T06:06:26;103437.69;;;16.13;100.00
25430;BME280;13360;48.152;-1.788;2022-10-16T06:08:54;103454.97;;;16.15;100.00
25430;BME280;13360;48.152;-1.788;2022-10-16T06:11:22;103467.81;;;16.16;100.00
25430;BME280;13360;48.152;-1.788;2022-10-16T06:13:51;103471.16;;;16.18;100.00
25430;BME280;13360;48.152;-1.788;2022-10-16T06:16:17;103477.00;;;16.16;100.00
25430;BME280;13360;48.152;-1.788;2022-10-16T06:18:42;103482.31;;;16.18;100.00
25430;BME280;13360;48.152;-1.788;2022-10-16T06:21:11;103497.38;;;16.17;100.00
25430;BME280;13360;48.152;-1.788;2022-10-16T06:23:37;103510.19;;;16.18;100.00
25430;BME280;13360;48.152;-1.788;2022-10-16T06:26:11;103523.88;;;16.20;100.00
25430;BME280;13360;48.152;-1.788;2022-10-16T06:28:37;103533.66;;;16.22;100.00
25430;BME280;13360;48.152;-1.788;2022-10-16T06:31:03;103542.63;;;16.24;100.00
25430;BME280;13360;48.152;-1.788;2022-10-16T06:33:29;103549.47;;;16.11;100.00
25430;BME280;13360;48.152;-1.788;2022-10-16T06:36:07;103578.75;;;16.09;100.00
25430;BME280;13360;48.152;-1.788;2022-10-16T06:38:33;103627.88;;;16.15;100.00
25430;BME280;13360;48.152;-1.788;2022-10-16T06:40:58;103641.81;;;16.15;100.00
25430;BME280;13360;48.152;-1.788;2022-10-16T06:43:24;103656.81;;;16.09;100.00
25430;BME280;13360;48.152;-1.788;2022-10-16T06:45:54;103689.75;;;16.12;100.00
25430;BME280;13360;48.152;-1.788;2022-10-16T06:48:20;103704.16;;;16.04;100.00
25430;BME280;13360;48.152;-1.788;2022-10-16T06:51:08;103743.00;;;16.10;100.00
25430;BME280;13360;48.152;-1.788;2022-10-16T06:53:36;103760.03;;;16.14;100.00
25430;BME280;13360;48.152;-1.788;2022-10-16T06:56:12;103789.59;;;16.15;100.00
25430;BME280;13360;48.152;-1.788;2022-10-16T06:58:38;103816.72;;;16.20;100.00
25430;BME280;13360;48.152;-1.788;2022-10-16T07:01:04;103825.06;;;16.20;100.00
25430;BME280;13360;48.152;-1.788;2022-10-16T07:03:29;103840.97;;;16.19;100.00
25430;BME280;13360;48.152;-1.788;2022-10-16T07:05:55;103851.47;;;16.12;100.00
25430;BME280;13360;48.152;-1.788;2022-10-16T07:08:21;103873.84;;;16.17;100.00
25430;BME280;13360;48.152;-1.788;2022-10-16T07:10:46;103890.06;;;16.20;100.00
25430;BME280;13360;48.152;-1.788;2022-10-16T07:13:11;103894.75;;;16.14;100.00
25430;BME280;13360;48.152;-1.788;2022-10-16T07:15:39;103938.31;;;16.21;100.00
25430;BME280;13360;48.152;-1.788;2022-10-16T07:18:04;103967.91;;;16.22;100.00
25430;BME280;13360;48.152;-1.788;2022-10-16T07:20:29;103987.94;;;16.19;100.00
25430;BME280;13360;48.152;-1.788;2022-10-16T07:22:55;104024.78;;;16.21;100.00
25430;BME280;13360;48.152;-1.788;2022-10-16T07:25:20;104040.78;;;16.25;100.00
25430;BME280;13360;48.152;-1.788;2022-10-16T07:27:45;104060.63;;;16.29;100.00
25430;BME280;13360;48.152;-1.788;2022-10-16T07:30:11;104066.97;;;16.24;100.00
25430;BME280;13360;48.152;-1.788;2022-10-16T07:32:36;104081.16;;;16.23;100.00
25430;BME280;13360;48.152;-1.788;2022-10-16T07:35:02;104093.25;;;16.28;100.00
25430;BME280;13360;48.152;-1.788;2022-10-16T07:37:27;104104.16;;;16.30;100.00
25430;BME280;13360;48.152;-1.788;2022-10-16T07:39:53;104108.38;;;16.32;100.00
25430;BME280;13360;48.152;-1.788;2022-10-16T07:42:18;104114.31;;;16.36;100.00
25430;BME280;13360;48.152;-1.788;2022-10-16T07:44:45;104116.16;;;16.30;100.00
25430;BME280;13360;48.152;-1.788;2022-10-16T07:47:10;104128.56;;;16.39;100.00
25430;BME280;13360;48.152;-1.788;2022-10-16T07:49:35;104140.44;;;16.46;100.00
25430;BME280;13360;48.152;-1.788;2022-10-16T07:52:01;104129.53;;;16.45;100.00
25430;BME280;13360;48.152;-1.788;2022-10-16T07:54:26;104128.16;;;16.48;100.00
25430;BME280;13360;48.152;-1.788;2022-10-16T07:56:51;104128.75;;;16.50;100.00
25430;BME280;13360;48.152;-1.788;2022-10-16T07:59:17;104130.50;;;16.56;100.00
25430;BME280;13360;48.152;-1.788;2022-10-16T08:01:42;104124.75;;;16.62;100.00
25430;BME280;13360;48.152;-1.788;2022-10-16T08:04:08;104135.28;;;16.72;100.00
25430;BME280;13360;48.152;-1.788;2022-10-16T08:06:38;104103.97;;;16.70;100.00
25430;BME280;13360;48.152;-1.788;2022-10-16T08:09:05;104099.03;;;16.77;100.00
25430;BME280;13360;48.152;-1.788;2022-10-16T08:11:30;104073.28;;;16.70;100.00
25430;BME280;13360;48.152;-1.788;2022-10-16T08:13:56;104032.75;;;16.67;100.00
25430;BME280;13360;48.152;-1.788;2022-10-16T08:16:21;104009.47;;;16.62;100.00
25430;BME280;13360;48.152;-1.788;2022-10-16T08:18:47;104007.00;;;16.65;100.00
25430;BME280;13360;48.152;-1.788;2022-10-16T08:21:16;104005.81;;;16.78;100.00
25430;BME280;13360;48.152;-1.788;2022-10-16T08:23:42;103988.81;;;16.80;100.00
25430;BME280;13360;48.152;-1.788;2022-10-16T08:26:08;103981.59;;;16.84;100.00
25430;BME280;13360;48.152;-1.788;2022-10-16T08:28:34;103921.44;;;16.71;100.00
25430;BME280;13360;48.152;-1.788;2022-10-16T08:31:11;103887.09;;;16.70;100.00
25430;BME280;13360;48.152;-1.788;2022-10-16T08:33:37;103865.38;;;16.77;100.00
25430;BME280;13360;48.152;-1.788;2022-10-16T08:36:03;103829.31;;;16.71;100.00
25430;BME280;13360;48.152;-1.788;2022-10-16T08:38:29;103787.38;;;16.66;100.00
25430;BME280;13360;48.152;-1.788;2022-10-16T08:41:01;103728.06;;;16.49;100.00
25430;BME280;13360;48.152;-1.788;2022-10-16T08:43:43;103708.56;;;16.54;100.00
25430;BME280;13360;48.152;-1.788;2022-10-16T08:49:27;103667.97;;;16.68;100.00
25430;BME280;13360;48.152;-1.788;2022-10-16T08:51:52;103631.44;;;16.74;100.00
25430;BME280;13360;48.152;-1.788;2022-10-16T08:54:26;103593.22;;;16.75;100.00
25430;BME280;13360;48.152;-1.788;2022-10-16T08:56:57;103566.13;;;16.70;100.00
25430;BME280;13360;48.152;-1.788;2022-10-16T08:59:26;103533.47;;;16.71;100.00
25430;BME280;13360;48.152;-1.788;2022-10-16T09:01:52;103503.22;;;16.63;100.00
25430;BME280;13360;48.152;-1.788;2022-10-16T09:04:48;103480.34;;;16.61;100.00
25430;BME280;13360;48.152;-1.788;2022-10-16T09:10:27;103457.81;;;16.67;100.00
25430;BME280;13360;48.152;-1.788;2022-10-16T09:12:56;103451.41;;;16.72;100.00
25430;BME280;13360;48.152;-1.788;2022-10-16T09:15:35;103417.66;;;16.73;100.00
25430;BME280;13360;48.152;-1.788;2022-10-16T09:18:15;103395.03;;;16.80;100.00
25430;BME280;13360;48.152;-1.788;2022-10-16T09:23:19;103359.31;;;16.82;100.00
25430;BME280;13360;48.152;-1.788;2022-10-16T09:25:48;103335.59;;;16.85;100.00
25430;BME280;13360;48.152;-1.788;2022-10-16T09:28:14;103304.06;;;16.79;100.00
25430;BME280;13360;48.152;-1.788;2022-10-16T09:30:40;103254.38;;;16.76;100.00
25430;BME280;13360;48.152;-1.788;2022-10-16T09:33:06;103237.06;;;16.79;100.00
25430;BME280;13360;48.152;-1.788;2022-10-16T09:35:42;103211.94;;;16.79;100.00
25430;BME280;13360;48.152;-1.788;2022-10-16T09:38:08;103200.50;;;16.81;100.00
25430;BME280;13360;48.152;-1.788;2022-10-16T09:40:45;103161.44;;;16.70;100.00
25430;BME280;13360;48.152;-1.788;2022-10-16T09:45:57;103187.38;;;16.91;100.00
25430;BME280;13360;48.152;-1.788;2022-10-16T09:48:25;103190.16;;;16.96;100.00
25430;BME280;13360;48.152;-1.788;2022-10-16T09:50:59;103168.13;;;16.95;100.00
25430;BME280;13360;48.152;-1.788;2022-10-16T09:53:42;103173.41;;;17.01;100.00
25430;BME280;13360;48.152;-1.788;2022-10-16T09:56:10;103175.63;;;17.04;100.00
25430;BME280;13360;48.152;-1.788;2022-10-16T09:58:42;103170.88;;;17.10;100.00
25430;BME280;13360;48.152;-1.788;2022-10-16T10:01:13;103170.03;;;17.15;100.00
25430;BME280;13360;48.152;-1.788;2022-10-16T10:03:40;103164.16;;;17.16;100.00
25430;BME280;13360;48.152;-1.788;2022-10-16T10:06:17;103153.81;;;17.17;100.00
25430;BME280;13360;48.152;-1.788;2022-10-16T10:11:57;103168.09;;;17.10;100.00
25430;BME280;13360;48.152;-1.788;2022-10-16T10:14:32;103176.75;;;17.03;100.00
25430;BME280;13360;48.152;-1.788;2022-10-16T10:19:30;103120.94;;;16.93;100.00
25430;BME280;13360;48.152;-1.788;2022-10-16T10:22:15;103098.03;;;16.96;100.00
25430;BME280;13360;48.152;-1.788;2022-10-16T10:24:41;103060.63;;;16.97;100.00
25430;BME280;13360;48.152;-1.788;2022-10-16T10:27:13;103046.13;;;16.95;100.00
25430;BME280;13360;48.152;-1.788;2022-10-16T10:29:59;103005.38;;;16.89;100.00
25430;BME280;13360;48.152;-1.788;2022-10-16T10:32:50;103003.94;;;16.97;100.00
25430;BME280;13360;48.152;-1.788;2022-10-16T10:40:55;102888.69;;;16.86;100.00
25430;BME280;13360;48.152;-1.788;2022-10-16T10:46:03;102858.00;;;16.91;100.00
25430;BME280;13360;48.152;-1.788;2022-10-16T10:54:16;102860.25;;;16.84;100.00
25430;BME280;13360;48.152;-1.788;2022-10-16T10:56:52;102882.31;;;16.81;100.00
25430;BME280;13360;48.152;-1.788;2022-10-16T11:02:13;103002.09;;;16.57;100.00
25430;BME280;13360;48.152;-1.788;2022-10-16T11:08:07;103193.19;;;16.39;100.00
25430;BME280;13360;48.152;-1.788;2022-10-16T11:10:44;103291.09;;;16.32;100.00
25430;BME280;13360;48.152;-1.788;2022-10-16T11:13:19;103405.97;;;16.29;100.00
25430;BME280;13360;48.152;-1.788;2022-10-16T11:15:48;103490.78;;;16.33;100.00
25430;BME280;13360;48.152;-1.788;2022-10-16T11:18:19;103536.44;;;16.22;100.00
25430;BME280;13360;48.152;-1.788;2022-10-16T11:20:51;103612.75;;;16.43;100.00
25430;BME280;13360;48.152;-1.788;2022-10-16T11:23:30;103673.38;;;16.53;100.00
25430;BME280;13360;48.152;-1.788;2022-10-16T11:26:04;103693.66;;;16.43;100.00
25430;BME280;13360;48.152;-1.788;2022-10-16T11:28:46;103678.69;;;16.22;100.00
25430;BME280;13360;48.152;-1.788;2022-10-16T11:34:04;103693.72;;;15.94;100.00
25430;BME280;13360;48.152;-1.788;2022-10-16T11:36:36;103738.22;;;16.06;100.00
25430;BME280;13360;48.152;-1.788;2022-10-16T11:41:42;103752.78;;;16.13;100.00
25430;BME280;13360;48.152;-1.788;2022-10-16T11:46:40;103765.25;;;16.32;100.00
25430;BME280;13360;48.152;-1.788;2022-10-16T11:49:16;103761.94;;;16.35;100.00
25430;BME280;13360;48.152;-1.788;2022-10-16T11:52:05;103759.41;;;16.34;100.00
25430;BME280;13360;48.152;-1.788;2022-10-16T11:54:52;103747.63;;;16.27;100.00
25430;BME280;13360;48.152;-1.788;2022-10-16T11:57:24;103797.22;;;16.46;100.00
25430;BME280;13360;48.152;-1.788;2022-10-16T12:00:14;103815.44;;;16.54;100.00
25430;BME280;13360;48.152;-1.788;2022-10-16T12:03:10;103820.75;;;16.56;100.00
25430;BME280;13360;48.152;-1.788;2022-10-16T12:08:15;103850.03;;;16.53;100.00
25430;BME280;13360;48.152;-1.788;2022-10-16T12:10:43;103863.94;;;16.48;100.00
25430;BME280;13360;48.152;-1.788;2022-10-16T12:13:32;103871.94;;;16.44;100.00
25430;BME280;13360;48.152;-1.788;2022-10-16T12:18:40;103896.84;;;16.46;100.00
25430;BME280;13360;48.152;-1.788;2022-10-16T12:21:05;103899.09;;;16.49;100.00
25430;BME280;13360;48.152;-1.788;2022-10-16T12:23:46;103877.94;;;16.31;100.00
25430;BME280;13360;48.152;-1.788;2022-10-16T12:26:12;103920.50;;;16.43;100.00
25430;BME280;13360;48.152;-1.788;2022-10-16T12:28:38;103938.59;;;16.41;100.00
25430;BME280;13360;48.152;-1.788;2022-10-16T12:31:07;103974.50;;;16.54;100.00
25430;BME280;13360;48.152;-1.788;2022-10-16T12:33:40;103996.31;;;16.57;100.00
25430;BME280;13360;48.152;-1.788;2022-10-16T12:36:15;104019.53;;;16.63;100.00
25430;BME280;13360;48.152;-1.788;2022-10-16T12:38:51;104018.56;;;16.52;100.00
25430;BME280;13360;48.152;-1.788;2022-10-16T12:41:34;104053.88;;;16.63;100.00
25430;BME280;13360;48.152;-1.788;2022-10-16T12:44:01;104048.16;;;16.53;100.00
25430;BME280;13360;48.152;-1.788;2022-10-16T12:51:38;104098.47;;;16.41;100.00
25430;BME280;13360;48.152;-1.788;2022-10-16T12:54:15;104133.91;;;16.58;100.00
25430;BME280;13360;48.152;-1.788;2022-10-16T13:05:30;104211.28;;;16.96;100.00
25430;BME280;13360;48.152;-1.788;2022-10-16T13:08:39;104243.59;;;17.09;100.00
25430;BME280;13360;48.152;-1.788;2022-10-16T13:19:50;104267.38;;;17.11;100.00
25430;BME280;13360;48.152;-1.788;2022-10-16T13:22:46;104271.03;;;17.12;100.00
25430;BME280;13360;48.152;-1.788;2022-10-16T13:25:26;104289.22;;;17.14;100.00
25430;BME280;13360;48.152;-1.788;2022-10-16T13:28:05;104290.91;;;17.15;100.00
25430;BME280;13360;48.152;-1.788;2022-10-16T13:30:38;104291.75;;;17.16;100.00
25430;BME280;13360;48.152;-1.788;2022-10-16T13:33:12;104318.97;;;17.25;100.00
25430;BME280;13360;48.152;-1.788;2022-10-16T13:35:50;104322.72;;;17.31;100.00
25430;BME280;13360;48.152;-1.788;2022-10-16T13:38:21;104320.53;;;17.33;100.00
25430;BME280;13360;48.152;-1.788;2022-10-16T13:43:23;104324.56;;;17.42;100.00
25430;BME280;13360;48.152;-1.788;2022-10-16T13:48:22;104302.19;;;17.42;100.00
25430;BME280;13360;48.152;-1.788;2022-10-16T13:51:18;104311.16;;;17.44;100.00
25430;BME280;13360;48.152;-1.788;2022-10-16T13:53:44;104310.66;;;17.47;100.00
25430;BME280;13360;48.152;-1.788;2022-10-16T13:56:12;104333.38;;;17.51;100.00
25430;BME280;13360;48.152;-1.788;2022-10-16T13:58:38;104338.19;;;17.55;100.00
25430;BME280;13360;48.152;-1.788;2022-10-16T14:01:18;104335.97;;;17.57;100.00
25430;BME280;13360;48.152;-1.788;2022-10-16T14:03:46;104329.91;;;17.65;100.00
25430;BME280;13360;48.152;-1.788;2022-10-16T14:06:17;104339.09;;;17.78;100.00
25430;BME280;13360;48.152;-1.788;2022-10-16T14:08:53;104349.81;;;17.86;100.00